createdAt,value
2018-01-12T00:02:14.846Z,27.43
2018-01-12T00:04:43.254Z,27.13
2018-01-12T00:07:12.267Z,25.53
2018-01-12T00:09:40.622Z,31.97
2018-01-12T00:12:08.917Z,30.37
2018-01-12T00:14:37.298Z,30.43
2018-01-12T00:17:05.553Z,31.57
2018-01-12T00:19:33.783Z,30.13
2018-01-12T00:22:02.254Z,35.03
2018-01-12T00:24:31.309Z,31.77
2018-01-12T00:26:59.581Z,33.50
2018-01-12T00:29:27.890Z,26.80
2018-01-12T00:31:56.166Z,34.13
2018-01-12T00:34:24.619Z,31.07
2018-01-12T00:36:53.669Z,34.20
2018-01-12T00:39:22.714Z,33.90
2018-01-12T00:41:50.970Z,30.83
2018-01-12T00:44:19.213Z,33.60
2018-01-12T00:46:48.246Z,26.57
2018-01-12T00:49:16.853Z,32.67
2018-01-12T00:51:45.265Z,34.67
2018-01-12T00:54:14.349Z,34.57
2018-01-12T00:56:43.338Z,29.73
2018-01-12T00:59:11.597Z,33.40
2018-01-12T01:01:39.866Z,37.93
2018-01-12T01:04:09.379Z,37.30
2018-01-12T01:06:37.598Z,31.63
2018-01-12T01:09:05.896Z,33.23
2018-01-12T01:11:34.898Z,32.57
2018-01-12T01:14:03.128Z,28.13
2018-01-12T01:16:32.135Z,31.87
2018-01-12T01:19:00.382Z,35.13
2018-01-12T01:21:28.610Z,34.23
2018-01-12T01:23:56.890Z,31.57
2018-01-12T01:26:25.273Z,29.10
2018-01-12T01:28:53.510Z,31.23
2018-01-12T01:31:22.578Z,30.47
2018-01-12T01:33:50.837Z,32.27
2018-01-12T01:36:19.107Z,29.27
2018-01-12T01:38:47.375Z,34.47
2018-01-12T01:41:15.751Z,35.77
2018-01-12T01:43:44.062Z,33.70
2018-01-12T01:46:12.294Z,29.33
2018-01-12T01:48:41.350Z,28.10
2018-01-12T01:51:10.347Z,30.37
2018-01-12T01:53:39.398Z,30.70
2018-01-12T01:56:07.646Z,34.27
2018-01-12T01:58:35.876Z,33.17
2018-01-12T02:01:04.144Z,34.37
2018-01-12T02:03:32.405Z,29.97
2018-01-12T02:06:01.848Z,32.43
2018-01-12T02:08:31.342Z,39.07
2018-01-12T02:10:59.662Z,36.40
2018-01-12T02:13:27.890Z,37.87
2018-01-12T02:15:56.185Z,28.17
2018-01-12T02:18:24.394Z,34.47
2018-01-12T02:20:52.615Z,34.83
2018-01-12T02:23:20.899Z,26.23
2018-01-12T02:25:49.142Z,34.00
2018-01-12T02:28:17.588Z,32.03
2018-01-12T02:30:45.843Z,32.17
2018-01-12T02:33:14.832Z,31.90
2018-01-12T02:35:43.105Z,33.07
2018-01-12T02:38:11.357Z,33.73
2018-01-12T02:40:39.616Z,37.27
2018-01-12T02:43:07.817Z,25.70
2018-01-12T02:45:36.075Z,29.53
2018-01-12T02:48:04.380Z,31.63
2018-01-12T02:50:32.642Z,29.20
2018-01-12T02:53:01.651Z,27.43
2018-01-12T02:55:30.765Z,24.97
2018-01-12T02:57:59.784Z,28.27
2018-01-12T03:00:28.103Z,26.67
2018-01-12T03:02:56.392Z,33.53
2018-01-12T03:05:24.785Z,34.87
2018-01-12T03:07:54.216Z,28.00
2018-01-12T03:10:22.502Z,25.07
2018-01-12T03:12:50.721Z,26.63
2018-01-12T03:15:19.077Z,28.47
2018-01-12T03:17:47.303Z,29.10
2018-01-12T03:20:16.342Z,23.33
2018-01-12T03:22:44.610Z,31.40
2018-01-12T03:25:12.873Z,31.43
2018-01-12T03:27:41.155Z,34.63
2018-01-12T03:30:10.185Z,34.33
2018-01-12T03:32:38.427Z,33.50
2018-01-12T03:35:06.680Z,34.83
2018-01-12T03:37:35.685Z,32.03
2018-01-12T03:40:03.987Z,35.10
2018-01-12T03:42:32.213Z,30.37
2018-01-12T03:45:01.250Z,28.63
2018-01-12T03:47:29.561Z,28.47
2018-01-12T03:49:57.861Z,32.03
2018-01-12T03:52:26.877Z,26.87
2018-01-12T03:54:55.190Z,31.50
2018-01-12T03:57:24.198Z,26.57
2018-01-12T03:59:52.456Z,23.37
2018-01-12T04:02:20.691Z,32.27
2018-01-12T04:04:49.670Z,27.47
2018-01-12T04:07:18.857Z,23.93
2018-01-12T04:09:49.116Z,25.83
2018-01-12T04:12:17.367Z,31.20
2018-01-12T04:14:46.414Z,30.73
2018-01-12T04:17:14.687Z,26.50
2018-01-12T04:19:42.943Z,30.37
2018-01-12T04:22:11.186Z,31.93
2018-01-12T04:24:40.222Z,29.87
2018-01-12T04:27:08.502Z,27.67
2018-01-12T04:29:36.773Z,25.17
2018-01-12T04:32:05.030Z,30.60
2018-01-12T04:34:33.248Z,25.87
2018-01-12T04:37:01.519Z,27.73
2018-01-12T04:39:29.763Z,25.27
2018-01-12T04:41:58.148Z,29.87
2018-01-12T04:44:26.617Z,28.93
2018-01-12T04:46:54.850Z,25.63
2018-01-12T04:49:23.127Z,24.53
2018-01-12T04:51:51.399Z,23.77
2018-01-12T04:54:19.765Z,24.80
2018-01-12T04:56:48.005Z,25.00
2018-01-12T04:59:16.282Z,25.97
2018-01-12T05:01:44.519Z,26.30
2018-01-12T05:04:13.534Z,23.80
2018-01-12T05:06:42.550Z,29.50
2018-01-12T05:09:10.814Z,27.20
2018-01-12T05:11:39.718Z,27.30
2018-01-12T05:14:09.317Z,27.37
2018-01-12T05:16:37.592Z,31.17
2018-01-12T05:19:05.918Z,28.33
2018-01-12T05:21:34.240Z,25.30
2018-01-12T05:24:02.459Z,27.13
2018-01-12T05:26:30.698Z,23.73
2018-01-12T05:28:59.011Z,24.43
2018-01-12T05:31:27.721Z,22.80
2018-01-12T05:33:56.087Z,22.40
2018-01-12T05:36:25.707Z,27.13
2018-01-12T05:38:53.955Z,23.80
2018-01-12T05:41:22.368Z,22.80
2018-01-12T05:43:51.214Z,25.53
2018-01-12T05:46:19.515Z,23.37
2018-01-12T05:48:47.739Z,25.53
2018-01-12T05:51:16.056Z,22.87
2018-01-12T05:53:44.290Z,23.63
2018-01-12T05:56:13.352Z,21.43
2018-01-12T05:58:42.890Z,25.57
2018-01-12T06:01:23.739Z,23.87
2018-01-12T06:04:04.482Z,25.77
2018-01-12T06:06:32.722Z,25.67
2018-01-12T06:09:01.042Z,25.20
2018-01-12T06:11:29.338Z,25.77
2018-01-12T06:13:58.387Z,25.30
2018-01-12T06:16:26.734Z,23.43
2018-01-12T06:18:55.067Z,23.13
2018-01-12T06:21:23.362Z,25.60
2018-01-12T06:23:52.372Z,25.87
2018-01-12T06:26:20.614Z,26.03
2018-01-12T06:28:48.876Z,24.73
2018-01-12T06:31:17.147Z,24.37
2018-01-12T06:33:45.647Z,24.13
2018-01-12T06:36:13.919Z,26.27
2018-01-12T06:38:42.266Z,20.83
2018-01-12T06:41:11.390Z,22.87
2018-01-12T06:43:40.402Z,20.77
2018-01-12T06:46:08.724Z,20.47
2018-01-12T06:48:36.998Z,20.40
2018-01-12T06:51:05.270Z,19.37
2018-01-12T06:53:33.554Z,19.77
2018-01-12T06:56:01.888Z,21.23
2018-01-12T06:58:30.124Z,22.10
2018-01-12T07:00:59.161Z,21.57
2018-01-12T07:03:27.484Z,25.75
2018-01-12T07:05:56.506Z,25.27
2018-01-12T07:08:24.762Z,19.30
2018-01-12T07:10:53.794Z,23.37
2018-01-12T07:13:22.031Z,20.33
2018-01-12T07:15:51.043Z,22.37
2018-01-12T07:18:20.411Z,20.87
2018-01-12T07:21:00.570Z,20.93
2018-01-12T07:23:40.659Z,22.00
2018-01-12T07:26:08.935Z,20.77
2018-01-12T07:28:37.923Z,23.13
2018-01-12T07:31:06.926Z,22.90
2018-01-12T07:33:35.915Z,23.23
2018-01-12T07:36:04.182Z,23.33
2018-01-12T07:38:32.458Z,20.70
2018-01-12T07:41:01.462Z,24.60
2018-01-12T07:43:29.723Z,20.63
2018-01-12T07:46:00.270Z,22.87
2018-01-12T07:48:28.518Z,21.43
2018-01-12T07:50:56.750Z,21.20
2018-01-12T07:53:25.007Z,19.23
2018-01-12T07:55:53.262Z,19.43
2018-01-12T07:58:21.502Z,21.70
2018-01-12T08:00:55.519Z,21.83
2018-01-12T08:03:23.762Z,21.03
2018-01-12T08:05:52.012Z,21.70
2018-01-12T08:08:20.698Z,20.37
2018-01-12T08:10:48.962Z,20.87
2018-01-12T08:13:17.261Z,23.07
2018-01-12T08:15:45.518Z,21.57
2018-01-12T08:18:14.119Z,20.50
2018-01-12T08:20:42.350Z,20.97
2018-01-12T08:23:10.709Z,21.53
2018-01-12T08:25:38.950Z,21.43
2018-01-12T08:28:07.186Z,20.27
2018-01-12T08:30:36.284Z,17.77
2018-01-12T08:33:04.498Z,20.47
2018-01-12T08:35:32.731Z,22.97
2018-01-12T08:38:00.982Z,19.17
2018-01-12T08:40:29.327Z,20.63
2018-01-12T08:42:57.587Z,21.63
2018-01-12T08:45:25.854Z,19.33
2018-01-12T08:47:54.130Z,20.70
2018-01-12T08:50:22.625Z,18.97
2018-01-12T08:52:50.938Z,20.07
2018-01-12T08:55:19.182Z,19.57
2018-01-12T08:57:47.437Z,21.30
2018-01-12T09:00:16.455Z,18.80
2018-01-12T09:02:44.717Z,22.03
2018-01-12T09:05:12.977Z,22.30
2018-01-12T09:07:41.218Z,21.87
2018-01-12T09:10:09.458Z,19.83
2018-01-12T09:12:37.695Z,21.63
2018-01-12T09:18:07.442Z,22.53
2018-01-12T09:20:35.765Z,19.77
2018-01-12T09:23:15.634Z,17.77
2018-01-12T09:25:43.998Z,19.53
2018-01-12T09:28:12.263Z,21.07
2018-01-12T09:30:40.500Z,18.20
2018-01-12T09:33:09.558Z,18.80
2018-01-12T09:35:37.814Z,17.67
2018-01-12T09:38:17.836Z,20.00
2018-01-12T09:40:46.830Z,21.20
2018-01-12T09:43:15.121Z,20.23
2018-01-12T09:45:43.523Z,19.63
2018-01-12T09:48:37.429Z,20.83
2018-01-12T09:51:05.711Z,18.37
2018-01-12T09:53:34.759Z,19.17
2018-01-12T09:56:03.009Z,16.93
2018-01-12T09:58:31.419Z,19.23
2018-01-12T10:01:03.484Z,19.60
2018-01-12T10:03:31.726Z,18.00
2018-01-12T10:06:00.013Z,18.17
2018-01-12T10:08:28.317Z,17.87
2018-01-12T10:10:56.548Z,17.10
2018-01-12T10:13:25.634Z,19.60
2018-01-12T10:15:54.676Z,18.63
2018-01-12T10:18:41.486Z,18.83
2018-01-12T10:21:21.586Z,19.93
2018-01-12T10:23:50.650Z,17.73
2018-01-12T10:26:18.945Z,19.43
2018-01-12T10:29:00.466Z,19.70
2018-01-12T10:31:39.241Z,18.03
2018-01-12T10:34:07.621Z,16.67
2018-01-12T10:36:36.654Z,18.60
2018-01-12T10:42:04.694Z,19.37
2018-01-12T10:44:32.985Z,20.37
2018-01-12T10:47:15.989Z,19.00
2018-01-12T10:49:56.067Z,20.73
2018-01-12T10:52:35.268Z,20.83
2018-01-12T10:55:03.546Z,21.33
2018-01-12T10:57:31.770Z,17.83
2018-01-12T11:00:00.057Z,20.37
2018-01-12T11:02:28.376Z,16.67
2018-01-12T11:04:56.665Z,15.23
2018-01-12T11:07:24.905Z,16.40
2018-01-12T11:09:53.265Z,20.17
2018-01-12T11:12:21.630Z,19.50
2018-01-12T11:14:49.910Z,16.90
2018-01-12T11:17:18.249Z,17.93
2018-01-12T11:19:46.505Z,14.70
2018-01-12T11:22:14.773Z,16.87
2018-01-12T11:24:43.185Z,21.33
2018-01-12T11:27:11.555Z,16.87
2018-01-12T11:29:40.562Z,19.80
2018-01-12T11:32:08.828Z,17.17
2018-01-12T11:34:37.096Z,17.90
2018-01-12T11:37:06.116Z,13.83
2018-01-12T11:39:34.373Z,22.33
2018-01-12T11:42:02.602Z,16.23
2018-01-12T11:44:30.843Z,20.07
2018-01-12T11:46:59.134Z,18.43
2018-01-12T11:49:27.388Z,17.63
2018-01-12T11:51:55.602Z,20.27
2018-01-12T11:54:24.645Z,19.13
2018-01-12T11:56:53.702Z,20.13
2018-01-12T11:59:21.920Z,23.70
2018-01-12T12:01:50.179Z,21.00
2018-01-12T12:04:18.403Z,18.87
2018-01-12T12:06:46.674Z,17.97
2018-01-12T12:09:14.972Z,19.80
2018-01-12T12:11:43.962Z,18.73
2018-01-12T12:14:12.982Z,21.87
2018-01-12T12:16:41.221Z,21.33
2018-01-12T12:19:09.460Z,20.63
2018-01-12T12:21:37.684Z,19.83
2018-01-12T12:24:06.826Z,20.50
2018-01-12T12:26:35.774Z,21.57
2018-01-12T12:29:04.777Z,20.13
2018-01-12T12:31:33.884Z,18.63
2018-01-12T12:34:02.898Z,17.93
2018-01-12T12:36:31.154Z,17.50
2018-01-12T12:38:59.467Z,18.53
2018-01-12T12:41:27.730Z,16.60
2018-01-12T12:43:56.286Z,16.37
2018-01-12T12:46:25.380Z,15.93
2018-01-12T12:48:54.478Z,17.10
2018-01-12T12:51:22.730Z,16.67
2018-01-12T12:53:51.797Z,18.13
2018-01-12T12:56:20.074Z,19.37
2018-01-12T12:58:48.391Z,21.50
2018-01-12T13:01:17.443Z,18.87
2018-01-12T13:03:45.723Z,19.63
2018-01-12T13:06:13.956Z,19.33
2018-01-12T13:08:42.218Z,20.00
2018-01-12T13:11:11.214Z,19.37
2018-01-12T13:13:40.245Z,19.97
2018-01-12T13:16:08.553Z,17.37
2018-01-12T13:18:36.840Z,17.33
2018-01-12T13:21:06.181Z,20.10
2018-01-12T13:23:35.124Z,20.17
2018-01-12T13:26:03.449Z,17.93
2018-01-12T13:28:31.754Z,20.63
2018-01-12T13:31:00.067Z,18.47
2018-01-12T13:33:28.286Z,18.00
2018-01-12T13:35:56.752Z,17.00
2018-01-12T13:38:25.874Z,15.90
2018-01-12T13:40:54.286Z,17.70
2018-01-12T13:43:22.820Z,16.40
2018-01-12T13:45:51.818Z,16.40
2018-01-12T13:48:20.046Z,14.77
2018-01-12T13:50:48.289Z,16.30
2018-01-12T13:53:16.579Z,16.23
2018-01-12T13:55:44.897Z,17.17
2018-01-12T13:58:13.171Z,17.97
2018-01-12T14:00:42.234Z,17.33
2018-01-12T14:03:10.489Z,19.80
2018-01-12T14:05:39.613Z,17.60
2018-01-12T14:08:08.066Z,18.67
2018-01-12T14:10:36.354Z,19.73
2018-01-12T14:13:04.667Z,20.00
2018-01-12T14:15:33.674Z,19.47
2018-01-12T14:18:02.427Z,20.23
2018-01-12T14:20:31.543Z,20.50
2018-01-12T14:22:59.853Z,22.10
2018-01-12T14:25:28.943Z,19.77
2018-01-12T14:27:58.439Z,19.40
2018-01-12T14:30:26.711Z,20.87
2018-01-12T14:32:55.060Z,19.03
2018-01-12T14:35:24.759Z,22.83
2018-01-12T14:37:53.013Z,24.33
2018-01-12T14:40:21.234Z,22.87
2018-01-12T14:42:49.462Z,21.40
2018-01-12T14:45:17.766Z,18.87
2018-01-12T14:47:46.014Z,18.33
2018-01-12T14:50:14.276Z,17.73
2018-01-12T14:52:42.510Z,18.43
2018-01-12T14:55:10.738Z,18.07
2018-01-12T14:57:38.988Z,19.93
2018-01-12T15:00:08.022Z,20.50
2018-01-12T15:02:36.264Z,16.13
2018-01-12T15:05:05.299Z,15.80
2018-01-12T15:07:34.041Z,14.47
2018-01-12T15:10:02.248Z,14.87
2018-01-12T15:12:30.498Z,16.80
2018-01-12T15:14:59.593Z,15.57
2018-01-12T15:17:27.961Z,16.27
2018-01-12T15:19:56.182Z,16.27
2018-01-12T15:22:24.492Z,16.17
2018-01-12T15:24:52.698Z,15.67
2018-01-12T15:27:21.798Z,17.90
2018-01-12T15:29:51.110Z,16.90
2018-01-12T15:32:19.706Z,17.17
2018-01-12T15:34:47.931Z,16.87
2018-01-12T15:37:16.245Z,15.47
2018-01-12T15:39:44.550Z,17.20
2018-01-12T15:42:12.821Z,20.77
2018-01-12T15:44:41.096Z,18.70
2018-01-12T15:47:09.353Z,22.83
2018-01-12T15:49:37.584Z,18.53
2018-01-12T15:52:05.861Z,20.50
2018-01-12T15:54:34.109Z,24.13
2018-01-12T15:57:03.137Z,22.40
2018-01-12T15:59:31.403Z,22.40
2018-01-12T16:01:59.696Z,23.87
2018-01-12T16:04:27.890Z,23.17
2018-01-12T16:06:56.929Z,23.87
2018-01-12T16:09:25.205Z,20.23
2018-01-12T16:11:53.434Z,22.33
2018-01-12T16:14:22.471Z,20.80
2018-01-12T16:16:50.689Z,20.50
2018-01-12T16:19:18.982Z,19.90
2018-01-12T16:21:49.470Z,20.50
2018-01-12T16:24:17.709Z,20.90
2018-01-12T16:26:46.302Z,18.70
2018-01-12T16:29:15.510Z,22.23
2018-01-12T16:31:43.897Z,20.17
2018-01-12T16:34:12.492Z,20.33
2018-01-12T16:36:40.966Z,22.63
2018-01-12T16:39:12.972Z,21.97
2018-01-12T16:41:38.630Z,21.47
2018-01-12T16:44:06.920Z,19.63
2018-01-12T16:46:36.028Z,20.23
2018-01-12T16:49:04.257Z,21.90
2018-01-12T16:51:33.351Z,17.77
2018-01-12T16:54:01.582Z,20.33
2018-01-12T16:56:29.812Z,20.73
2018-01-12T16:58:58.878Z,19.20
2018-01-12T17:01:27.105Z,21.00
2018-01-12T17:03:55.350Z,21.43
2018-01-12T17:06:23.717Z,22.27
2018-01-12T17:08:51.914Z,22.00
2018-01-12T17:11:20.914Z,19.97
2018-01-12T17:13:50.002Z,17.70
2018-01-12T17:16:19.038Z,20.77
2018-01-12T17:18:47.706Z,19.87
2018-01-12T17:21:15.976Z,23.40
2018-01-12T17:23:44.978Z,22.40
2018-01-12T17:26:13.582Z,21.00
2018-01-12T17:28:41.898Z,19.03
2018-01-12T17:31:10.250Z,22.33
2018-01-12T17:33:38.985Z,20.93
2018-01-12T17:36:07.306Z,22.33
2018-01-12T17:38:35.610Z,18.03
2018-01-12T17:41:03.876Z,23.10
2018-01-12T17:43:32.286Z,21.17
2018-01-12T17:46:00.540Z,21.53
2018-01-12T17:48:28.821Z,24.03
2018-01-12T17:50:57.071Z,27.97
2018-01-12T17:53:25.309Z,23.00
2018-01-12T17:55:54.345Z,28.73
2018-01-12T17:58:22.651Z,23.10
2018-01-12T18:00:50.989Z,31.37
2018-01-12T18:03:19.324Z,29.33
2018-01-12T18:05:47.625Z,25.27
2018-01-12T18:08:16.653Z,27.23
2018-01-12T18:10:44.994Z,27.77
2018-01-12T18:13:14.081Z,30.40
2018-01-12T18:15:42.325Z,26.27
2018-01-12T18:18:10.598Z,25.30
2018-01-12T18:20:39.010Z,24.63
2018-01-12T18:23:08.046Z,25.63
2018-01-12T18:25:36.295Z,25.20
2018-01-12T18:28:04.697Z,26.93
2018-01-12T18:30:32.931Z,25.77
2018-01-12T18:33:01.208Z,29.50
2018-01-12T18:35:29.573Z,27.93
2018-01-12T18:37:57.815Z,27.47
2018-01-12T18:40:26.058Z,24.87
2018-01-12T18:42:55.102Z,29.60
2018-01-12T18:45:23.330Z,28.07
2018-01-12T18:47:51.593Z,25.83
2018-01-12T18:50:20.621Z,25.47
2018-01-12T18:52:48.853Z,32.73
2018-01-12T18:55:17.861Z,32.27
2018-01-12T18:57:46.898Z,32.53
2018-01-12T19:00:15.130Z,28.50
2018-01-12T19:02:45.071Z,28.83
2018-01-12T19:05:13.316Z,26.87
2018-01-12T19:07:42.311Z,30.13
2018-01-12T19:10:11.351Z,32.37
2018-01-12T19:12:40.598Z,28.20
2018-01-12T19:15:09.598Z,32.97
2018-01-12T19:17:38.656Z,32.23
2018-01-12T19:20:07.238Z,36.77
2018-01-12T19:22:35.554Z,35.40
2018-01-12T19:25:03.762Z,34.87
2018-01-12T19:27:32.041Z,33.27
2018-01-12T19:30:00.266Z,35.90
2018-01-12T19:32:29.264Z,34.67
2018-01-12T19:34:58.309Z,34.10
2018-01-12T19:37:26.567Z,33.00
2018-01-12T19:39:54.856Z,36.33
2018-01-12T19:45:04.344Z,34.20
2018-01-12T19:47:32.579Z,31.57
2018-01-12T19:50:00.874Z,30.33
2018-01-12T19:52:29.254Z,30.07
2018-01-12T19:54:57.607Z,29.57
2018-01-12T19:57:26.669Z,29.90
2018-01-12T19:59:55.981Z,30.47
2018-01-12T20:02:25.058Z,33.97
2018-01-12T20:04:53.414Z,32.27
2018-01-12T20:07:21.772Z,30.50
2018-01-12T20:09:50.002Z,31.40
2018-01-12T20:12:18.273Z,29.30
2018-01-12T20:14:46.543Z,32.23
2018-01-12T20:17:14.868Z,30.03
2018-01-12T20:19:43.888Z,27.57
2018-01-12T20:22:12.172Z,32.50
2018-01-12T20:24:40.447Z,31.60
2018-01-12T20:27:08.901Z,33.83
2018-01-12T20:29:37.157Z,27.40
2018-01-12T20:32:05.400Z,31.13
2018-01-12T20:34:33.632Z,29.20
2018-01-12T20:37:01.911Z,34.20
2018-01-12T20:39:30.294Z,32.90
2018-01-12T20:42:00.206Z,33.77
2018-01-12T20:44:28.689Z,33.03
2018-01-12T20:46:56.947Z,37.07
2018-01-12T20:49:25.238Z,34.83
2018-01-12T20:51:54.165Z,32.10
2018-01-12T20:54:22.506Z,32.53
2018-01-12T20:56:50.737Z,36.63
2018-01-12T20:59:21.089Z,31.43
2018-01-12T21:01:49.310Z,28.40
2018-01-12T21:04:17.628Z,32.27
2018-01-12T21:06:46.896Z,35.00
2018-01-12T21:09:15.118Z,40.80
2018-01-12T21:11:43.576Z,35.70
2018-01-12T21:14:11.838Z,35.23
2018-01-12T21:16:40.886Z,41.77
2018-01-12T21:19:09.114Z,33.43
2018-01-12T21:21:38.158Z,33.53
2018-01-12T21:24:06.400Z,40.53
2018-01-12T21:26:35.437Z,33.90
2018-01-12T21:29:03.822Z,39.30
2018-01-12T21:31:32.032Z,35.97
2018-01-12T21:34:01.042Z,34.37
2018-01-12T21:36:29.409Z,32.00
2018-01-12T21:38:57.665Z,34.07
2018-01-12T21:41:25.997Z,34.73
2018-01-12T21:43:54.338Z,33.80
2018-01-12T21:46:23.350Z,33.83
2018-01-12T21:48:51.712Z,36.07
2018-01-12T21:51:19.919Z,37.83
2018-01-12T21:53:48.338Z,40.60
2018-01-12T21:56:16.547Z,36.93
2018-01-12T21:58:45.598Z,37.33
2018-01-12T22:01:13.904Z,39.83
2018-01-12T22:03:42.170Z,45.03
2018-01-12T22:06:11.202Z,37.50
2018-01-12T22:08:39.434Z,39.13
2018-01-12T22:11:07.696Z,46.37
2018-01-12T22:13:36.340Z,39.40
2018-01-12T22:16:04.677Z,37.57
2018-01-12T22:18:33.979Z,37.90
2018-01-12T22:21:02.234Z,39.13
2018-01-12T22:23:30.486Z,36.93
2018-01-12T22:25:59.009Z,36.07
2018-01-12T22:28:27.349Z,35.47
2018-01-12T22:30:55.717Z,38.13
2018-01-12T22:33:23.922Z,37.13
2018-01-12T22:35:53.042Z,37.97
2018-01-12T22:38:22.053Z,33.73
2018-01-12T22:40:51.070Z,37.10
2018-01-12T22:43:20.227Z,33.77
2018-01-12T22:45:48.789Z,32.93
2018-01-12T22:48:17.115Z,35.57
2018-01-12T22:50:46.611Z,33.10
2018-01-12T22:53:14.821Z,43.10
2018-01-12T22:55:43.629Z,42.43
2018-01-12T22:58:11.869Z,46.13
2018-01-12T23:00:40.103Z,40.07
2018-01-12T23:03:08.333Z,44.87
2018-01-12T23:05:36.610Z,34.33
2018-01-12T23:08:04.834Z,31.57
2018-01-12T23:10:33.098Z,31.57
2018-01-12T23:13:01.379Z,26.03
2018-01-12T23:15:29.682Z,28.57
2018-01-12T23:17:58.685Z,27.83
2018-01-12T23:20:27.479Z,32.90
2018-01-12T23:22:56.471Z,28.43
2018-01-12T23:25:24.770Z,32.60
2018-01-12T23:27:53.919Z,36.40
2018-01-12T23:30:22.172Z,31.47
2018-01-12T23:32:50.495Z,35.90
2018-01-12T23:35:18.966Z,29.73
2018-01-12T23:37:48.026Z,38.07
2018-01-12T23:40:16.283Z,39.10
2018-01-12T23:42:44.557Z,36.40
2018-01-12T23:45:12.897Z,36.97
2018-01-12T23:47:41.970Z,28.13
2018-01-12T23:50:10.209Z,38.80
2018-01-12T23:52:39.398Z,33.33
2018-01-12T23:55:07.636Z,42.07
2018-01-12T23:57:36.705Z,47.23
